sensor_id;sensor_type;location;lat;lon;timestamp;P1;durP1;ratioP1;P2;durP2;ratioP2
40074;SDS011;26529;51.530;11.754;2023-01-23T00:01:17;57.10;;;30.30;;
40074;SDS011;26529;51.530;11.754;2023-01-23T00:03:46;61.08;;;29.73;;
40074;SDS011;26529;51.530;11.754;2023-01-23T00:06:13;55.65;;;28.70;;
40074;SDS011;26529;51.530;11.754;2023-01-23T00:08:39;69.32;;;30.05;;
40074;SDS011;26529;51.530;11.754;2023-01-23T00:11:07;56.67;;;28.45;;
40074;SDS011;26529;51.530;11.754;2023-01-23T00:13:35;52.65;;;27.60;;
40074;SDS011;26529;51.530;11.754;2023-01-23T00:16:08;56.47;;;27.83;;
40074;SDS011;26529;51.530;11.754;2023-01-23T00:18:38;59.58;;;28.08;;
40074;SDS011;26529;51.530;11.754;2023-01-23T00:21:05;55.97;;;26.92;;
40074;SDS011;26529;51.530;11.754;2023-01-23T00:23:32;53.05;;;26.60;;
40074;SDS011;26529;51.530;11.754;2023-01-23T00:26:05;54.63;;;27.80;;
40074;SDS011;26529;51.530;11.754;2023-01-23T00:28:32;54.90;;;25.90;;
40074;SDS011;26529;51.530;11.754;2023-01-23T00:31:06;49.28;;;26.38;;
40074;SDS011;26529;51.530;11.754;2023-01-23T00:33:34;48.08;;;25.25;;
40074;SDS011;26529;51.530;11.754;2023-01-23T00:35:59;50.70;;;24.70;;
40074;SDS011;26529;51.530;11.754;2023-01-23T00:38:25;53.30;;;25.42;;
40074;SDS011;26529;51.530;11.754;2023-01-23T00:40:51;53.88;;;25.95;;
40074;SDS011;26529;51.530;11.754;2023-01-23T00:43:19;45.70;;;22.92;;
40074;SDS011;26529;51.530;11.754;2023-01-23T00:45:47;42.67;;;24.25;;
40074;SDS011;26529;51.530;11.754;2023-01-23T00:48:13;43.55;;;22.95;;
40074;SDS011;26529;51.530;11.754;2023-01-23T00:50:38;44.70;;;22.90;;
40074;SDS011;26529;51.530;11.754;2023-01-23T00:53:04;41.97;;;21.90;;
40074;SDS011;26529;51.530;11.754;2023-01-23T00:55:29;44.83;;;23.08;;
40074;SDS011;26529;51.530;11.754;2023-01-23T00:57:55;45.85;;;23.70;;
40074;SDS011;26529;51.530;11.754;2023-01-23T01:00:20;46.05;;;21.70;;
40074;SDS011;26529;51.530;11.754;2023-01-23T01:02:46;43.22;;;22.50;;
40074;SDS011;26529;51.530;11.754;2023-01-23T01:05:12;43.47;;;22.08;;
40074;SDS011;26529;51.530;11.754;2023-01-23T01:07:38;39.15;;;21.73;;
40074;SDS011;26529;51.530;11.754;2023-01-23T01:10:03;39.00;;;21.08;;
40074;SDS011;26529;51.530;11.754;2023-01-23T01:12:29;41.85;;;22.25;;
40074;SDS011;26529;51.530;11.754;2023-01-23T01:14:55;41.92;;;21.23;;
40074;SDS011;26529;51.530;11.754;2023-01-23T01:17:20;44.20;;;20.38;;
40074;SDS011;26529;51.530;11.754;2023-01-23T01:19:46;39.10;;;20.48;;
40074;SDS011;26529;51.530;11.754;2023-01-23T01:22:12;35.22;;;19.55;;
40074;SDS011;26529;51.530;11.754;2023-01-23T01:24:39;37.03;;;20.60;;
40074;SDS011;26529;51.530;11.754;2023-01-23T01:27:06;37.15;;;19.85;;
40074;SDS011;26529;51.530;11.754;2023-01-23T01:29:32;38.47;;;20.10;;
40074;SDS011;26529;51.530;11.754;2023-01-23T01:31:58;35.25;;;18.20;;
40074;SDS011;26529;51.530;11.754;2023-01-23T01:34:23;39.85;;;19.45;;
40074;SDS011;26529;51.530;11.754;2023-01-23T01:36:49;35.28;;;18.52;;
40074;SDS011;26529;51.530;11.754;2023-01-23T01:39:16;36.95;;;18.63;;
40074;SDS011;26529;51.530;11.754;2023-01-23T01:41:41;37.15;;;18.60;;
40074;SDS011;26529;51.530;11.754;2023-01-23T01:44:09;33.05;;;18.52;;
40074;SDS011;26529;51.530;11.754;2023-01-23T01:46:41;29.45;;;16.67;;
40074;SDS011;26529;51.530;11.754;2023-01-23T01:49:08;35.00;;;17.98;;
40074;SDS011;26529;51.530;11.754;2023-01-23T01:51:40;31.75;;;17.50;;
40074;SDS011;26529;51.530;11.754;2023-01-23T01:54:22;34.63;;;18.40;;
40074;SDS011;26529;51.530;11.754;2023-01-23T01:56:57;33.08;;;16.35;;
40074;SDS011;26529;51.530;11.754;2023-01-23T01:59:30;33.00;;;17.25;;
40074;SDS011;26529;51.530;11.754;2023-01-23T02:02:01;29.02;;;16.27;;
40074;SDS011;26529;51.530;11.754;2023-01-23T02:04:33;29.83;;;16.25;;
40074;SDS011;26529;51.530;11.754;2023-01-23T02:07:04;31.38;;;16.50;;
40074;SDS011;26529;51.530;11.754;2023-01-23T02:09:35;26.13;;;15.55;;
40074;SDS011;26529;51.530;11.754;2023-01-23T02:12:02;29.40;;;15.73;;
40074;SDS011;26529;51.530;11.754;2023-01-23T02:14:28;29.65;;;15.93;;
40074;SDS011;26529;51.530;11.754;2023-01-23T02:16:54;30.95;;;16.30;;
40074;SDS011;26529;51.530;11.754;2023-01-23T02:19:39;29.42;;;14.75;;
40074;SDS011;26529;51.530;11.754;2023-01-23T02:27:56;23.95;;;13.85;;
40074;SDS011;26529;51.530;11.754;2023-01-23T02:30:22;25.83;;;13.88;;
40074;SDS011;26529;51.530;11.754;2023-01-23T02:32:51;28.35;;;14.65;;
40074;SDS011;26529;51.530;11.754;2023-01-23T02:35:26;25.35;;;14.30;;
40074;SDS011;26529;51.530;11.754;2023-01-23T02:38:01;26.33;;;13.93;;
40074;SDS011;26529;51.530;11.754;2023-01-23T02:40:30;23.67;;;13.40;;
40074;SDS011;26529;51.530;11.754;2023-01-23T02:43:03;29.58;;;13.65;;
40074;SDS011;26529;51.530;11.754;2023-01-23T02:45:31;25.67;;;13.57;;
40074;SDS011;26529;51.530;11.754;2023-01-23T02:47:57;22.02;;;13.23;;
40074;SDS011;26529;51.530;11.754;2023-01-23T02:50:23;23.40;;;13.20;;
40074;SDS011;26529;51.530;11.754;2023-01-23T02:52:48;23.00;;;12.68;;
40074;SDS011;26529;51.530;11.754;2023-01-23T02:55:16;24.08;;;12.55;;
40074;SDS011;26529;51.530;11.754;2023-01-23T02:57:42;20.75;;;12.75;;
40074;SDS011;26529;51.530;11.754;2023-01-23T03:00:09;23.70;;;12.90;;
40074;SDS011;26529;51.530;11.754;2023-01-23T03:02:48;22.20;;;13.40;;
40074;SDS011;26529;51.530;11.754;2023-01-23T03:05:15;23.00;;;12.45;;
40074;SDS011;26529;51.530;11.754;2023-01-23T03:07:42;20.10;;;11.90;;
40074;SDS011;26529;51.530;11.754;2023-01-23T03:10:09;19.50;;;12.13;;
40074;SDS011;26529;51.530;11.754;2023-01-23T03:12:35;21.42;;;11.68;;
40074;SDS011;26529;51.530;11.754;2023-01-23T03:15:07;19.30;;;12.10;;
40074;SDS011;26529;51.530;11.754;2023-01-23T03:17:34;23.10;;;12.30;;
40074;SDS011;26529;51.530;11.754;2023-01-23T03:20:00;18.83;;;11.55;;
40074;SDS011;26529;51.530;11.754;2023-01-23T03:22:27;21.45;;;11.88;;
40074;SDS011;26529;51.530;11.754;2023-01-23T03:24:53;18.67;;;10.73;;
40074;SDS011;26529;51.530;11.754;2023-01-23T03:27:20;22.55;;;11.93;;
40074;SDS011;26529;51.530;11.754;2023-01-23T03:29:50;20.83;;;11.48;;
40074;SDS011;26529;51.530;11.754;2023-01-23T03:32:34;17.73;;;10.77;;
40074;SDS011;26529;51.530;11.754;2023-01-23T03:35:02;17.88;;;10.48;;
40074;SDS011;26529;51.530;11.754;2023-01-23T03:37:28;17.42;;;10.07;;
40074;SDS011;26529;51.530;11.754;2023-01-23T03:39:55;17.55;;;10.52;;
40074;SDS011;26529;51.530;11.754;2023-01-23T03:42:39;20.17;;;11.45;;
40074;SDS011;26529;51.530;11.754;2023-01-23T03:45:08;17.08;;;10.95;;
40074;SDS011;26529;51.530;11.754;2023-01-23T03:47:34;19.33;;;10.05;;
40074;SDS011;26529;51.530;11.754;2023-01-23T03:50:00;18.08;;;9.98;;
40074;SDS011;26529;51.530;11.754;2023-01-23T03:52:29;18.75;;;10.13;;
40074;SDS011;26529;51.530;11.754;2023-01-23T03:54:55;16.63;;;10.02;;
40074;SDS011;26529;51.530;11.754;2023-01-23T03:57:20;16.73;;;9.60;;
40074;SDS011;26529;51.530;11.754;2023-01-23T03:59:46;17.42;;;10.40;;
40074;SDS011;26529;51.530;11.754;2023-01-23T04:02:14;17.40;;;9.63;;
40074;SDS011;26529;51.530;11.754;2023-01-23T04:04:39;16.38;;;9.55;;
40074;SDS011;26529;51.530;11.754;2023-01-23T04:07:06;16.52;;;9.75;;
40074;SDS011;26529;51.530;11.754;2023-01-23T04:09:34;16.25;;;9.80;;
40074;SDS011;26529;51.530;11.754;2023-01-23T04:12:00;16.83;;;9.90;;
40074;SDS011;26529;51.530;11.754;2023-01-23T04:14:26;18.38;;;10.05;;
40074;SDS011;26529;51.530;11.754;2023-01-23T04:16:54;15.95;;;9.20;;
40074;SDS011;26529;51.530;11.754;2023-01-23T04:19:20;18.08;;;9.18;;
40074;SDS011;26529;51.530;11.754;2023-01-23T04:21:46;17.75;;;10.23;;
40074;SDS011;26529;51.530;11.754;2023-01-23T04:24:13;18.75;;;9.45;;
40074;SDS011;26529;51.530;11.754;2023-01-23T04:26:40;15.38;;;8.75;;
40074;SDS011;26529;51.530;11.754;2023-01-23T04:29:06;16.80;;;9.07;;
40074;SDS011;26529;51.530;11.754;2023-01-23T04:31:32;13.50;;;7.90;;
40074;SDS011;26529;51.530;11.754;2023-01-23T04:33:59;14.93;;;8.20;;
40074;SDS011;26529;51.530;11.754;2023-01-23T04:36:26;13.82;;;8.40;;
40074;SDS011;26529;51.530;11.754;2023-01-23T04:38:52;14.23;;;8.23;;
40074;SDS011;26529;51.530;11.754;2023-01-23T04:41:23;15.25;;;8.57;;
40074;SDS011;26529;51.530;11.754;2023-01-23T04:43:57;13.38;;;8.23;;
40074;SDS011;26529;51.530;11.754;2023-01-23T04:46:48;15.68;;;7.95;;
40074;SDS011;26529;51.530;11.754;2023-01-23T04:49:18;14.05;;;7.97;;
40074;SDS011;26529;51.530;11.754;2023-01-23T04:51:45;13.50;;;7.75;;
40074;SDS011;26529;51.530;11.754;2023-01-23T04:54:12;14.82;;;8.02;;
40074;SDS011;26529;51.530;11.754;2023-01-23T04:56:39;17.33;;;8.10;;
40074;SDS011;26529;51.530;11.754;2023-01-23T04:59:07;13.73;;;7.65;;
40074;SDS011;26529;51.530;11.754;2023-01-23T05:01:34;12.23;;;7.63;;
40074;SDS011;26529;51.530;11.754;2023-01-23T05:04:02;15.00;;;8.55;;
40074;SDS011;26529;51.530;11.754;2023-01-23T05:06:28;13.55;;;7.03;;
40074;SDS011;26529;51.530;11.754;2023-01-23T05:08:55;11.18;;;6.78;;
40074;SDS011;26529;51.530;11.754;2023-01-23T05:11:47;11.52;;;7.53;;
40074;SDS011;26529;51.530;11.754;2023-01-23T05:14:12;11.35;;;7.50;;
40074;SDS011;26529;51.530;11.754;2023-01-23T05:16:40;17.45;;;8.13;;
40074;SDS011;26529;51.530;11.754;2023-01-23T05:19:28;11.55;;;7.38;;
40074;SDS011;26529;51.530;11.754;2023-01-23T05:21:54;12.93;;;7.75;;
40074;SDS011;26529;51.530;11.754;2023-01-23T05:24:20;12.27;;;7.07;;
40074;SDS011;26529;51.530;11.754;2023-01-23T05:26:47;14.20;;;7.20;;
40074;SDS011;26529;51.530;11.754;2023-01-23T05:29:13;11.65;;;6.68;;
40074;SDS011;26529;51.530;11.754;2023-01-23T05:31:48;11.05;;;7.03;;
40074;SDS011;26529;51.530;11.754;2023-01-23T05:34:33;11.63;;;6.82;;
40074;SDS011;26529;51.530;11.754;2023-01-23T05:37:02;12.57;;;7.05;;
40074;SDS011;26529;51.530;11.754;2023-01-23T05:39:30;12.15;;;6.57;;
40074;SDS011;26529;51.530;11.754;2023-01-23T05:41:57;11.93;;;6.78;;
40074;SDS011;26529;51.530;11.754;2023-01-23T05:44:46;11.10;;;7.40;;
40074;SDS011;26529;51.530;11.754;2023-01-23T05:47:22;10.98;;;7.25;;
40074;SDS011;26529;51.530;11.754;2023-01-23T05:49:49;10.45;;;5.88;;
40074;SDS011;26529;51.530;11.754;2023-01-23T05:52:14;9.68;;;6.47;;
40074;SDS011;26529;51.530;11.754;2023-01-23T05:54:41;10.45;;;6.20;;
40074;SDS011;26529;51.530;11.754;2023-01-23T05:57:08;12.60;;;7.03;;
40074;SDS011;26529;51.530;11.754;2023-01-23T06:00:05;13.02;;;6.82;;
40074;SDS011;26529;51.530;11.754;2023-01-23T06:02:40;11.70;;;5.93;;
40074;SDS011;26529;51.530;11.754;2023-01-23T06:05:41;9.23;;;5.55;;
40074;SDS011;26529;51.530;11.754;2023-01-23T06:08:14;10.90;;;5.50;;
40074;SDS011;26529;51.530;11.754;2023-01-23T06:10:41;12.43;;;5.63;;
40074;SDS011;26529;51.530;11.754;2023-01-23T06:13:07;9.18;;;4.78;;
40074;SDS011;26529;51.530;11.754;2023-01-23T06:15:34;9.77;;;4.78;;
40074;SDS011;26529;51.530;11.754;2023-01-23T06:18:04;10.52;;;4.78;;
40074;SDS011;26529;51.530;11.754;2023-01-23T06:20:30;9.85;;;4.57;;
40074;SDS011;26529;51.530;11.754;2023-01-23T06:22:56;5.82;;;4.13;;
40074;SDS011;26529;51.530;11.754;2023-01-23T06:25:22;6.10;;;3.97;;
40074;SDS011;26529;51.530;11.754;2023-01-23T06:27:50;14.52;;;4.40;;
40074;SDS011;26529;51.530;11.754;2023-01-23T06:30:15;10.13;;;5.15;;
40074;SDS011;26529;51.530;11.754;2023-01-23T06:32:44;8.80;;;4.47;;
40074;SDS011;26529;51.530;11.754;2023-01-23T06:35:11;7.47;;;3.67;;
40074;SDS011;26529;51.530;11.754;2023-01-23T06:37:39;8.65;;;4.57;;
40074;SDS011;26529;51.530;11.754;2023-01-23T06:40:07;10.10;;;5.43;;
40074;SDS011;26529;51.530;11.754;2023-01-23T06:42:38;8.43;;;4.38;;
40074;SDS011;26529;51.530;11.754;2023-01-23T06:45:05;6.78;;;4.03;;
40074;SDS011;26529;51.530;11.754;2023-01-23T06:47:33;10.73;;;4.68;;
40074;SDS011;26529;51.530;11.754;2023-01-23T06:49:59;8.70;;;4.00;;
40074;SDS011;26529;51.530;11.754;2023-01-23T06:52:29;7.05;;;3.35;;
40074;SDS011;26529;51.530;11.754;2023-01-23T06:54:55;9.05;;;5.15;;
40074;SDS011;26529;51.530;11.754;2023-01-23T06:57:21;7.05;;;4.20;;
40074;SDS011;26529;51.530;11.754;2023-01-23T06:59:48;9.10;;;4.13;;
40074;SDS011;26529;51.530;11.754;2023-01-23T07:02:16;8.23;;;3.80;;
40074;SDS011;26529;51.530;11.754;2023-01-23T07:04:48;10.48;;;4.53;;
40074;SDS011;26529;51.530;11.754;2023-01-23T07:07:13;7.45;;;4.15;;
40074;SDS011;26529;51.530;11.754;2023-01-23T07:09:40;5.68;;;3.63;;
40074;SDS011;26529;51.530;11.754;2023-01-23T07:12:16;13.55;;;4.22;;
40074;SDS011;26529;51.530;11.754;2023-01-23T07:14:42;7.50;;;4.32;;
40074;SDS011;26529;51.530;11.754;2023-01-23T07:17:10;7.32;;;3.58;;
40074;SDS011;26529;51.530;11.754;2023-01-23T07:19:36;7.78;;;4.40;;
40074;SDS011;26529;51.530;11.754;2023-01-23T07:22:05;10.00;;;4.20;;
40074;SDS011;26529;51.530;11.754;2023-01-23T07:24:31;8.13;;;4.28;;
40074;SDS011;26529;51.530;11.754;2023-01-23T07:26:57;8.93;;;4.35;;
40074;SDS011;26529;51.530;11.754;2023-01-23T07:29:23;13.93;;;9.38;;
40074;SDS011;26529;51.530;11.754;2023-01-23T07:31:48;17.45;;;13.02;;
40074;SDS011;26529;51.530;11.754;2023-01-23T07:34:13;20.52;;;13.73;;
40074;SDS011;26529;51.530;11.754;2023-01-23T07:36:39;20.38;;;14.40;;
40074;SDS011;26529;51.530;11.754;2023-01-23T07:39:05;20.20;;;14.52;;
40074;SDS011;26529;51.530;11.754;2023-01-23T07:41:30;20.90;;;14.50;;
40074;SDS011;26529;51.530;11.754;2023-01-23T07:44:00;21.35;;;15.40;;
40074;SDS011;26529;51.530;11.754;2023-01-23T07:46:26;18.77;;;13.60;;
40074;SDS011;26529;51.530;11.754;2023-01-23T07:48:51;23.05;;;15.50;;
40074;SDS011;26529;51.530;11.754;2023-01-23T07:51:17;23.00;;;15.25;;
40074;SDS011;26529;51.530;11.754;2023-01-23T07:53:42;22.75;;;16.20;;
40074;SDS011;26529;51.530;11.754;2023-01-23T07:56:08;22.55;;;15.82;;
40074;SDS011;26529;51.530;11.754;2023-01-23T07:58:33;23.17;;;14.98;;
40074;SDS011;26529;51.530;11.754;2023-01-23T08:00:59;19.40;;;13.73;;
40074;SDS011;26529;51.530;11.754;2023-01-23T08:03:31;16.02;;;11.38;;
40074;SDS011;26529;51.530;11.754;2023-01-23T08:05:57;19.38;;;11.60;;
40074;SDS011;26529;51.530;11.754;2023-01-23T08:08:23;14.18;;;10.57;;
40074;SDS011;26529;51.530;11.754;2023-01-23T08:10:49;13.18;;;10.25;;
40074;SDS011;26529;51.530;11.754;2023-01-23T08:13:14;13.80;;;10.63;;
40074;SDS011;26529;51.530;11.754;2023-01-23T08:15:40;15.50;;;10.02;;
40074;SDS011;26529;51.530;11.754;2023-01-23T08:18:05;13.77;;;9.90;;
40074;SDS011;26529;51.530;11.754;2023-01-23T08:20:31;14.00;;;9.73;;
40074;SDS011;26529;51.530;11.754;2023-01-23T08:22:56;13.00;;;9.60;;
40074;SDS011;26529;51.530;11.754;2023-01-23T08:25:23;14.85;;;9.88;;
40074;SDS011;26529;51.530;11.754;2023-01-23T08:27:48;13.48;;;9.85;;
40074;SDS011;26529;51.530;11.754;2023-01-23T08:30:14;12.30;;;8.90;;
40074;SDS011;26529;51.530;11.754;2023-01-23T08:32:40;12.20;;;8.57;;
40074;SDS011;26529;51.530;11.754;2023-01-23T08:35:05;11.73;;;8.68;;
40074;SDS011;26529;51.530;11.754;2023-01-23T08:37:31;12.68;;;9.38;;
40074;SDS011;26529;51.530;11.754;2023-01-23T08:39:58;11.20;;;8.30;;
40074;SDS011;26529;51.530;11.754;2023-01-23T08:42:24;12.00;;;8.02;;
40074;SDS011;26529;51.530;11.754;2023-01-23T08:44:49;14.32;;;8.73;;
40074;SDS011;26529;51.530;11.754;2023-01-23T08:47:15;12.07;;;8.40;;
40074;SDS011;26529;51.530;11.754;2023-01-23T08:49:40;11.25;;;8.63;;
40074;SDS011;26529;51.530;11.754;2023-01-23T08:52:06;9.98;;;8.45;;
40074;SDS011;26529;51.530;11.754;2023-01-23T08:54:32;12.13;;;8.63;;
40074;SDS011;26529;51.530;11.754;2023-01-23T08:56:57;10.50;;;7.97;;
40074;SDS011;26529;51.530;11.754;2023-01-23T08:59:23;12.27;;;7.30;;
40074;SDS011;26529;51.530;11.754;2023-01-23T09:01:49;9.77;;;7.80;;
40074;SDS011;26529;51.530;11.754;2023-01-23T09:04:16;9.38;;;7.97;;
40074;SDS011;26529;51.530;11.754;2023-01-23T09:06:41;10.43;;;7.45;;
40074;SDS011;26529;51.530;11.754;2023-01-23T09:09:07;11.60;;;8.18;;
40074;SDS011;26529;51.530;11.754;2023-01-23T09:11:32;9.10;;;7.22;;
40074;SDS011;26529;51.530;11.754;2023-01-23T09:13:58;10.43;;;7.68;;
40074;SDS011;26529;51.530;11.754;2023-01-23T09:16:23;10.48;;;7.72;;
40074;SDS011;26529;51.530;11.754;2023-01-23T09:18:49;10.70;;;8.00;;
40074;SDS011;26529;51.530;11.754;2023-01-23T09:21:15;9.82;;;7.68;;
40074;SDS011;26529;51.530;11.754;2023-01-23T09:23:41;9.68;;;7.63;;
40074;SDS011;26529;51.530;11.754;2023-01-23T09:26:08;11.48;;;7.07;;
40074;SDS011;26529;51.530;11.754;2023-01-23T09:28:35;10.43;;;7.03;;
40074;SDS011;26529;51.530;11.754;2023-01-23T09:31:03;7.63;;;6.60;;
40074;SDS011;26529;51.530;11.754;2023-01-23T09:33:31;8.55;;;7.00;;
40074;SDS011;26529;51.530;11.754;2023-01-23T09:35:57;9.35;;;7.05;;
40074;SDS011;26529;51.530;11.754;2023-01-23T09:38:23;7.63;;;6.47;;
40074;SDS011;26529;51.530;11.754;2023-01-23T09:40:49;9.38;;;6.85;;
40074;SDS011;26529;51.530;11.754;2023-01-23T09:46:03;9.13;;;6.10;;
40074;SDS011;26529;51.530;11.754;2023-01-23T09:51:21;9.05;;;6.47;;
40074;SDS011;26529;51.530;11.754;2023-01-23T09:53:51;9.93;;;6.50;;
40074;SDS011;26529;51.530;11.754;2023-01-23T09:56:32;7.82;;;6.07;;
40074;SDS011;26529;51.530;11.754;2023-01-23T10:01:35;7.85;;;6.22;;
40074;SDS011;26529;51.530;11.754;2023-01-23T10:04:02;7.57;;;5.53;;
40074;SDS011;26529;51.530;11.754;2023-01-23T10:06:46;7.82;;;5.72;;
40074;SDS011;26529;51.530;11.754;2023-01-23T10:09:33;8.70;;;5.60;;
40074;SDS011;26529;51.530;11.754;2023-01-23T10:20:26;8.85;;;5.85;;
40074;SDS011;26529;51.530;11.754;2023-01-23T10:26:08;7.07;;;5.30;;
40074;SDS011;26529;51.530;11.754;2023-01-23T10:28:41;12.03;;;5.93;;
40074;SDS011;26529;51.530;11.754;2023-01-23T10:33:46;8.52;;;5.10;;
40074;SDS011;26529;51.530;11.754;2023-01-23T10:36:24;8.88;;;5.80;;
40074;SDS011;26529;51.530;11.754;2023-01-23T10:38:59;7.55;;;6.05;;
40074;SDS011;26529;51.530;11.754;2023-01-23T10:41:28;7.90;;;5.65;;
40074;SDS011;26529;51.530;11.754;2023-01-23T10:43:54;7.97;;;5.40;;
40074;SDS011;26529;51.530;11.754;2023-01-23T10:46:29;6.57;;;4.65;;
40074;SDS011;26529;51.530;11.754;2023-01-23T10:48:58;7.38;;;5.07;;
40074;SDS011;26529;51.530;11.754;2023-01-23T10:54:15;6.88;;;5.40;;
40074;SDS011;26529;51.530;11.754;2023-01-23T10:59:57;7.03;;;5.30;;
40074;SDS011;26529;51.530;11.754;2023-01-23T11:04:37;10.32;;;5.45;;
40074;SDS011;26529;51.530;11.754;2023-01-23T11:09:43;10.00;;;4.60;;
40074;SDS011;26529;51.530;11.754;2023-01-23T11:12:27;16.52;;;5.50;;
40074;SDS011;26529;51.530;11.754;2023-01-23T11:18:04;7.35;;;4.75;;
40074;SDS011;26529;51.530;11.754;2023-01-23T11:21:09;7.25;;;5.22;;
40074;SDS011;26529;51.530;11.754;2023-01-23T11:23:45;6.45;;;5.10;;
40074;SDS011;26529;51.530;11.754;2023-01-23T11:26:29;7.30;;;4.70;;
40074;SDS011;26529;51.530;11.754;2023-01-23T11:28:55;6.60;;;5.38;;
40074;SDS011;26529;51.530;11.754;2023-01-23T11:31:21;8.30;;;4.70;;
40074;SDS011;26529;51.530;11.754;2023-01-23T11:34:03;6.70;;;4.55;;
40074;SDS011;26529;51.530;11.754;2023-01-23T11:36:41;8.65;;;5.30;;
40074;SDS011;26529;51.530;11.754;2023-01-23T11:42:19;7.00;;;5.03;;
40074;SDS011;26529;51.530;11.754;2023-01-23T11:44:45;9.52;;;5.13;;
40074;SDS011;26529;51.530;11.754;2023-01-23T11:50:02;8.48;;;5.20;;
40074;SDS011;26529;51.530;11.754;2023-01-23T12:01:18;10.23;;;5.35;;
40074;SDS011;26529;51.530;11.754;2023-01-23T12:07:18;10.35;;;4.88;;
40074;SDS011;26529;51.530;11.754;2023-01-23T12:09:48;10.48;;;5.03;;
40074;SDS011;26529;51.530;11.754;2023-01-23T12:15:17;10.02;;;5.00;;
40074;SDS011;26529;51.530;11.754;2023-01-23T12:18:06;6.90;;;4.95;;
40074;SDS011;26529;51.530;11.754;2023-01-23T12:20:51;9.50;;;5.50;;
40074;SDS011;26529;51.530;11.754;2023-01-23T12:23:39;8.85;;;5.32;;
40074;SDS011;26529;51.530;11.754;2023-01-23T12:26:15;7.15;;;4.75;;
40074;SDS011;26529;51.530;11.754;2023-01-23T12:28:50;8.07;;;4.90;;
40074;SDS011;26529;51.530;11.754;2023-01-23T12:31:35;9.50;;;4.50;;
40074;SDS011;26529;51.530;11.754;2023-01-23T12:39:57;6.63;;;4.55;;
40074;SDS011;26529;51.530;11.754;2023-01-23T12:48:11;6.40;;;4.75;;
40074;SDS011;26529;51.530;11.754;2023-01-23T12:50:47;6.32;;;4.47;;
40074;SDS011;26529;51.530;11.754;2023-01-23T12:53:18;8.02;;;5.15;;
40074;SDS011;26529;51.530;11.754;2023-01-23T12:58:21;7.25;;;4.50;;
40074;SDS011;26529;51.530;11.754;2023-01-23T13:00:56;9.80;;;4.57;;
40074;SDS011;26529;51.530;11.754;2023-01-23T13:03:50;8.98;;;4.63;;
40074;SDS011;26529;51.530;11.754;2023-01-23T13:06:43;6.28;;;4.55;;
40074;SDS011;26529;51.530;11.754;2023-01-23T13:14:47;5.13;;;3.60;;
40074;SDS011;26529;51.530;11.754;2023-01-23T13:17:30;7.38;;;4.28;;
40074;SDS011;26529;51.530;11.754;2023-01-23T13:23:21;101.80;;;52.35;;
40074;SDS011;26529;51.530;11.754;2023-01-23T13:28:43;51.72;;;27.45;;
40074;SDS011;26529;51.530;11.754;2023-01-23T13:32:13;51.03;;;29.35;;
40074;SDS011;26529;51.530;11.754;2023-01-23T13:36:42;51.88;;;27.77;;
40074;SDS011;26529;51.530;11.754;2023-01-23T13:39:19;50.78;;;26.25;;
40074;SDS011;26529;51.530;11.754;2023-01-23T13:41:48;48.20;;;25.30;;
40074;SDS011;26529;51.530;11.754;2023-01-23T13:47:08;51.22;;;26.70;;
40074;SDS011;26529;51.530;11.754;2023-01-23T13:52:40;43.00;;;24.08;;
40074;SDS011;26529;51.530;11.754;2023-01-23T13:55:31;42.58;;;22.55;;
40074;SDS011;26529;51.530;11.754;2023-01-23T13:58:18;43.78;;;23.42;;
40074;SDS011;26529;51.530;11.754;2023-01-23T14:00:48;37.72;;;22.27;;
40074;SDS011;26529;51.530;11.754;2023-01-23T14:03:39;45.65;;;23.70;;
40074;SDS011;26529;51.530;11.754;2023-01-23T14:06:33;41.70;;;22.83;;
40074;SDS011;26529;51.530;11.754;2023-01-23T14:09:03;40.05;;;22.20;;
40074;SDS011;26529;51.530;11.754;2023-01-23T14:11:44;42.55;;;22.27;;
40074;SDS011;26529;51.530;11.754;2023-01-23T14:14:10;42.78;;;21.60;;
40074;SDS011;26529;51.530;11.754;2023-01-23T14:16:54;37.50;;;20.52;;
40074;SDS011;26529;51.530;11.754;2023-01-23T14:19:27;36.55;;;19.25;;
40074;SDS011;26529;51.530;11.754;2023-01-23T14:21:55;29.55;;;17.67;;
40074;SDS011;26529;51.530;11.754;2023-01-23T14:24:24;33.25;;;16.75;;
40074;SDS011;26529;51.530;11.754;2023-01-23T14:27:16;28.15;;;16.35;;
40074;SDS011;26529;51.530;11.754;2023-01-23T14:29:54;21.55;;;12.60;;
40074;SDS011;26529;51.530;11.754;2023-01-23T14:32:22;25.45;;;14.57;;
40074;SDS011;26529;51.530;11.754;2023-01-23T14:34:48;24.42;;;14.43;;
40074;SDS011;26529;51.530;11.754;2023-01-23T14:37:13;25.10;;;13.52;;
40074;SDS011;26529;51.530;11.754;2023-01-23T14:39:42;22.70;;;13.77;;
40074;SDS011;26529;51.530;11.754;2023-01-23T14:42:12;20.10;;;11.07;;
40074;SDS011;26529;51.530;11.754;2023-01-23T14:44:53;22.27;;;11.15;;
40074;SDS011;26529;51.530;11.754;2023-01-23T14:49:55;24.30;;;11.45;;
40074;SDS011;26529;51.530;11.754;2023-01-23T14:54:55;19.67;;;11.15;;
40074;SDS011;26529;51.530;11.754;2023-01-23T14:57:22;20.25;;;10.63;;
40074;SDS011;26529;51.530;11.754;2023-01-23T14:59:49;18.27;;;10.23;;
40074;SDS011;26529;51.530;11.754;2023-01-23T15:02:40;22.95;;;11.35;;
40074;SDS011;26529;51.530;11.754;2023-01-23T15:05:09;19.92;;;10.80;;
40074;SDS011;26529;51.530;11.754;2023-01-23T15:10:23;16.65;;;10.52;;
40074;SDS011;26529;51.530;11.754;2023-01-23T15:12:51;14.77;;;10.13;;
40074;SDS011;26529;51.530;11.754;2023-01-23T15:15:18;16.05;;;10.02;;
40074;SDS011;26529;51.530;11.754;2023-01-23T15:17:46;20.70;;;10.90;;
40074;SDS011;26529;51.530;11.754;2023-01-23T15:25:42;14.43;;;9.43;;
40074;SDS011;26529;51.530;11.754;2023-01-23T15:30:55;15.00;;;8.95;;
40074;SDS011;26529;51.530;11.754;2023-01-23T15:33:27;15.52;;;9.43;;
40074;SDS011;26529;51.530;11.754;2023-01-23T15:36:08;14.95;;;8.95;;
40074;SDS011;26529;51.530;11.754;2023-01-23T15:38:45;15.82;;;9.48;;
40074;SDS011;26529;51.530;11.754;2023-01-23T15:41:11;15.52;;;9.52;;
40074;SDS011;26529;51.530;11.754;2023-01-23T15:43:37;12.85;;;8.77;;
40074;SDS011;26529;51.530;11.754;2023-01-23T15:46:02;15.15;;;9.63;;
40074;SDS011;26529;51.530;11.754;2023-01-23T15:48:27;16.35;;;10.05;;
40074;SDS011;26529;51.530;11.754;2023-01-23T15:50:53;14.60;;;9.13;;
40074;SDS011;26529;51.530;11.754;2023-01-23T15:53:19;14.68;;;8.35;;
40074;SDS011;26529;51.530;11.754;2023-01-23T15:55:44;11.55;;;8.68;;
40074;SDS011;26529;51.530;11.754;2023-01-23T15:58:13;13.82;;;8.88;;
40074;SDS011;26529;51.530;11.754;2023-01-23T16:00:39;15.63;;;9.70;;
40074;SDS011;26529;51.530;11.754;2023-01-23T16:03:04;19.48;;;8.57;;
40074;SDS011;26529;51.530;11.754;2023-01-23T16:05:32;13.05;;;8.48;;
40074;SDS011;26529;51.530;11.754;2023-01-23T16:07:59;13.75;;;8.70;;
40074;SDS011;26529;51.530;11.754;2023-01-23T16:10:27;14.30;;;7.88;;
40074;SDS011;26529;51.530;11.754;2023-01-23T16:12:56;12.55;;;8.30;;
40074;SDS011;26529;51.530;11.754;2023-01-23T16:15:29;14.40;;;8.70;;
40074;SDS011;26529;51.530;11.754;2023-01-23T16:17:57;12.32;;;8.10;;
40074;SDS011;26529;51.530;11.754;2023-01-23T16:22:56;12.85;;;7.50;;
40074;SDS011;26529;51.530;11.754;2023-01-23T16:27:52;11.65;;;8.13;;
40074;SDS011;26529;51.530;11.754;2023-01-23T16:30:18;10.88;;;7.10;;
40074;SDS011;26529;51.530;11.754;2023-01-23T16:32:45;13.63;;;7.45;;